sensor_id;sensor_type;location;lat;lon;timestamp;temperature;humidity
21682;DHT22;11002;48.256;10.084;2023-02-05T00:01:40;0.70;99.90
21682;DHT22;11002;48.256;10.084;2023-02-05T00:04:10;0.70;99.90
21682;DHT22;11002;48.256;10.084;2023-02-05T00:06:38;0.70;99.90
21682;DHT22;11002;48.256;10.084;2023-02-05T00:09:08;0.70;99.90
21682;DHT22;11002;48.256;10.084;2023-02-05T00:11:38;0.90;99.90
21682;DHT22;11002;48.256;10.084;2023-02-05T00:14:05;0.90;99.90
21682;DHT22;11002;48.256;10.084;2023-02-05T00:16:34;0.80;99.90
21682;DHT22;11002;48.256;10.084;2023-02-05T00:19:03;0.60;99.90
21682;DHT22;11002;48.256;10.084;2023-02-05T00:21:30;0.80;99.90
21682;DHT22;11002;48.256;10.084;2023-02-05T00:24:01;0.70;99.90
21682;DHT22;11002;48.256;10.084;2023-02-05T00:26:29;0.40;99.90
21682;DHT22;11002;48.256;10.084;2023-02-05T00:28:58;0.40;99.90
21682;DHT22;11002;48.256;10.084;2023-02-05T00:31:27;0.30;99.90
21682;DHT22;11002;48.256;10.084;2023-02-05T00:33:56;0.30;99.90
21682;DHT22;11002;48.256;10.084;2023-02-05T00:36:26;0.50;99.90
21682;DHT22;11002;48.256;10.084;2023-02-05T00:38:57;0.40;99.90
21682;DHT22;11002;48.256;10.084;2023-02-05T00:41:25;0.60;99.90
21682;DHT22;11002;48.256;10.084;2023-02-05T00:44:01;0.60;99.90
21682;DHT22;11002;48.256;10.084;2023-02-05T00:46:42;0.40;99.90
21682;DHT22;11002;48.256;10.084;2023-02-05T00:49:12;0.30;99.90
21682;DHT22;11002;48.256;10.084;2023-02-05T00:51:40;0.20;99.90
21682;DHT22;11002;48.256;10.084;2023-02-05T00:54:15;0.10;99.90
21682;DHT22;11002;48.256;10.084;2023-02-05T00:57:04;0.20;99.90
21682;DHT22;11002;48.256;10.084;2023-02-05T00:59:46;0.20;99.90
21682;DHT22;11002;48.256;10.084;2023-02-05T01:02:32;0.20;99.90
21682;DHT22;11002;48.256;10.084;2023-02-05T01:05:23;0.10;99.90
21682;DHT22;11002;48.256;10.084;2023-02-05T01:07:54;0.10;99.90
21682;DHT22;11002;48.256;10.084;2023-02-05T01:10:30;0.10;99.90
21682;DHT22;11002;48.256;10.084;2023-02-05T01:13:05;0.00;99.90
21682;DHT22;11002;48.256;10.084;2023-02-05T01:15:53;0.10;99.90
21682;DHT22;11002;48.256;10.084;2023-02-05T01:18:44;-0.10;99.90
21682;DHT22;11002;48.256;10.084;2023-02-05T01:21:33;-0.10;99.90
21682;DHT22;11002;48.256;10.084;2023-02-05T01:24:20;-0.10;99.90
21682;DHT22;11002;48.256;10.084;2023-02-05T01:26:59;-0.50;99.90
21682;DHT22;11002;48.256;10.084;2023-02-05T01:29:33;-0.40;99.90
21682;DHT22;11002;48.256;10.084;2023-02-05T01:32:05;-0.50;99.90
21682;DHT22;11002;48.256;10.084;2023-02-05T01:34:40;-0.40;99.90
21682;DHT22;11002;48.256;10.084;2023-02-05T01:37:16;-0.50;99.90
21682;DHT22;11002;48.256;10.084;2023-02-05T01:39:48;-0.50;99.90
21682;DHT22;11002;48.256;10.084;2023-02-05T01:42:33;-0.50;99.90
21682;DHT22;11002;48.256;10.084;2023-02-05T01:45:46;-0.50;99.90
21682;DHT22;11002;48.256;10.084;2023-02-05T01:48:27;-0.40;99.90
21682;DHT22;11002;48.256;10.084;2023-02-05T01:51:16;-0.80;99.90
21682;DHT22;11002;48.256;10.084;2023-02-05T01:53:51;-0.60;99.90
21682;DHT22;11002;48.256;10.084;2023-02-05T01:56:50;-0.80;99.90
21682;DHT22;11002;48.256;10.084;2023-02-05T01:59:45;-0.80;99.90
21682;DHT22;11002;48.256;10.084;2023-02-05T02:02:38;-0.70;99.90
21682;DHT22;11002;48.256;10.084;2023-02-05T02:05:13;-0.70;99.90
21682;DHT22;11002;48.256;10.084;2023-02-05T02:07:41;-0.80;99.90
21682;DHT22;11002;48.256;10.084;2023-02-05T02:10:14;-0.80;99.90
21682;DHT22;11002;48.256;10.084;2023-02-05T02:12:44;-0.80;99.90
21682;DHT22;11002;48.256;10.084;2023-02-05T02:15:34;-0.70;99.90
21682;DHT22;11002;48.256;10.084;2023-02-05T02:18:07;-0.90;99.90
21682;DHT22;11002;48.256;10.084;2023-02-05T02:21:15;-0.80;99.90
21682;DHT22;11002;48.256;10.084;2023-02-05T02:24:18;-1.00;99.90
21682;DHT22;11002;48.256;10.084;2023-02-05T02:27:04;-1.10;99.90
21682;DHT22;11002;48.256;10.084;2023-02-05T02:29:47;-1.00;99.90
21682;DHT22;11002;48.256;10.084;2023-02-05T02:32:22;-1.10;99.90
21682;DHT22;11002;48.256;10.084;2023-02-05T02:34:55;-1.00;99.90
21682;DHT22;11002;48.256;10.084;2023-02-05T02:37:33;-1.10;99.90
21682;DHT22;11002;48.256;10.084;2023-02-05T02:40:10;-1.20;99.90
21682;DHT22;11002;48.256;10.084;2023-02-05T02:42:46;-1.10;99.90
21682;DHT22;11002;48.256;10.084;2023-02-05T02:45:17;-1.30;99.90
21682;DHT22;11002;48.256;10.084;2023-02-05T02:47:52;-1.30;99.90
21682;DHT22;11002;48.256;10.084;2023-02-05T02:50:25;-1.10;99.90
21682;DHT22;11002;48.256;10.084;2023-02-05T02:53:01;-1.00;99.90
21682;DHT22;11002;48.256;10.084;2023-02-05T02:55:35;-1.40;99.90
21682;DHT22;11002;48.256;10.084;2023-02-05T02:58:05;-1.00;99.90
21682;DHT22;11002;48.256;10.084;2023-02-05T03:00:35;-1.20;99.90
21682;DHT22;11002;48.256;10.084;2023-02-05T03:03:05;-0.90;99.90
21682;DHT22;11002;48.256;10.084;2023-02-05T03:05:34;-1.00;99.90
21682;DHT22;11002;48.256;10.084;2023-02-05T03:08:06;-1.00;99.90
21682;DHT22;11002;48.256;10.084;2023-02-05T03:10:39;-1.30;99.90
21682;DHT22;11002;48.256;10.084;2023-02-05T03:13:10;-1.10;99.90
21682;DHT22;11002;48.256;10.084;2023-02-05T03:15:44;-1.30;99.90
21682;DHT22;11002;48.256;10.084;2023-02-05T03:18:14;-1.30;99.90
21682;DHT22;11002;48.256;10.084;2023-02-05T03:20:46;-1.40;99.90
21682;DHT22;11002;48.256;10.084;2023-02-05T03:23:14;-1.40;99.90
21682;DHT22;11002;48.256;10.084;2023-02-05T03:25:42;-1.60;99.90
21682;DHT22;11002;48.256;10.084;2023-02-05T03:28:10;-1.60;99.90
21682;DHT22;11002;48.256;10.084;2023-02-05T03:30:51;-1.30;99.90
21682;DHT22;11002;48.256;10.084;2023-02-05T03:33:29;-1.60;99.90
21682;DHT22;11002;48.256;10.084;2023-02-05T03:36:08;-1.50;99.90
21682;DHT22;11002;48.256;10.084;2023-02-05T03:41:33;-1.50;99.90
21682;DHT22;11002;48.256;10.084;2023-02-05T03:44:28;-1.50;99.90
21682;DHT22;11002;48.256;10.084;2023-02-05T03:47:02;-1.70;99.90
21682;DHT22;11002;48.256;10.084;2023-02-05T03:49:41;-1.50;99.90
21682;DHT22;11002;48.256;10.084;2023-02-05T03:52:20;-1.70;99.90
21682;DHT22;11002;48.256;10.084;2023-02-05T03:54:55;-1.50;99.90
21682;DHT22;11002;48.256;10.084;2023-02-05T03:57:34;-1.80;99.90
21682;DHT22;11002;48.256;10.084;2023-02-05T04:00:05;-1.70;99.90
21682;DHT22;11002;48.256;10.084;2023-02-05T04:02:41;-1.60;99.90
21682;DHT22;11002;48.256;10.084;2023-02-05T04:05:13;-1.60;99.90
21682;DHT22;11002;48.256;10.084;2023-02-05T04:07:42;-1.50;99.90
21682;DHT22;11002;48.256;10.084;2023-02-05T04:10:11;-1.50;99.90
21682;DHT22;11002;48.256;10.084;2023-02-05T04:12:40;-1.70;99.90
21682;DHT22;11002;48.256;10.084;2023-02-05T04:15:08;-1.50;99.90
21682;DHT22;11002;48.256;10.084;2023-02-05T04:17:38;-1.70;99.90
21682;DHT22;11002;48.256;10.084;2023-02-05T04:20:08;-1.70;99.90
21682;DHT22;11002;48.256;10.084;2023-02-05T04:22:36;-1.40;99.90
21682;DHT22;11002;48.256;10.084;2023-02-05T04:25:03;-1.60;99.90
21682;DHT22;11002;48.256;10.084;2023-02-05T04:27:32;-1.50;99.90
21682;DHT22;11002;48.256;10.084;2023-02-05T04:30:02;-1.50;99.90
21682;DHT22;11002;48.256;10.084;2023-02-05T04:32:34;-1.90;99.90
21682;DHT22;11002;48.256;10.084;2023-02-05T04:35:02;-1.70;99.90
21682;DHT22;11002;48.256;10.084;2023-02-05T04:37:31;-1.80;99.90
21682;DHT22;11002;48.256;10.084;2023-02-05T04:39:59;-1.90;99.90
21682;DHT22;11002;48.256;10.084;2023-02-05T04:42:26;-1.90;99.90
21682;DHT22;11002;48.256;10.084;2023-02-05T04:44:54;-1.80;99.90
21682;DHT22;11002;48.256;10.084;2023-02-05T04:47:21;-1.70;99.90
21682;DHT22;11002;48.256;10.084;2023-02-05T04:49:48;-2.00;99.90
21682;DHT22;11002;48.256;10.084;2023-02-05T04:52:16;-1.90;99.90
21682;DHT22;11002;48.256;10.084;2023-02-05T04:54:44;-1.90;99.90
21682;DHT22;11002;48.256;10.084;2023-02-05T04:57:12;-2.00;99.90
21682;DHT22;11002;48.256;10.084;2023-02-05T04:59:39;-1.90;99.90
21682;DHT22;11002;48.256;10.084;2023-02-05T05:02:07;-1.70;99.90
21682;DHT22;11002;48.256;10.084;2023-02-05T05:04:35;-1.80;99.90
21682;DHT22;11002;48.256;10.084;2023-02-05T05:07:02;-1.90;99.90
21682;DHT22;11002;48.256;10.084;2023-02-05T05:09:31;-1.80;99.90
21682;DHT22;11002;48.256;10.084;2023-02-05T05:12:00;-1.80;99.90
21682;DHT22;11002;48.256;10.084;2023-02-05T05:14:28;-2.00;99.90
21682;DHT22;11002;48.256;10.084;2023-02-05T05:16:55;-1.90;99.90
21682;DHT22;11002;48.256;10.084;2023-02-05T05:19:22;-2.00;99.90
21682;DHT22;11002;48.256;10.084;2023-02-05T05:21:50;-1.90;99.90
21682;DHT22;11002;48.256;10.084;2023-02-05T05:24:17;-1.80;99.90
21682;DHT22;11002;48.256;10.084;2023-02-05T05:26:44;-2.10;99.90
21682;DHT22;11002;48.256;10.084;2023-02-05T05:29:14;-2.00;99.90
21682;DHT22;11002;48.256;10.084;2023-02-05T05:31:41;-2.10;99.90
21682;DHT22;11002;48.256;10.084;2023-02-05T05:34:08;-2.10;99.90
21682;DHT22;11002;48.256;10.084;2023-02-05T05:36:36;-1.90;99.90
21682;DHT22;11002;48.256;10.084;2023-02-05T05:39:04;-2.10;99.90
21682;DHT22;11002;48.256;10.084;2023-02-05T05:41:46;-1.90;99.90
21682;DHT22;11002;48.256;10.084;2023-02-05T05:44:32;-1.90;99.90
21682;DHT22;11002;48.256;10.084;2023-02-05T05:46:59;-1.90;99.90
21682;DHT22;11002;48.256;10.084;2023-02-05T05:49:26;-2.00;99.90
21682;DHT22;11002;48.256;10.084;2023-02-05T05:51:54;-1.70;99.90
21682;DHT22;11002;48.256;10.084;2023-02-05T05:54:21;-1.80;99.90
21682;DHT22;11002;48.256;10.084;2023-02-05T05:56:48;-1.80;99.90
21682;DHT22;11002;48.256;10.084;2023-02-05T05:59:16;-1.80;99.90
21682;DHT22;11002;48.256;10.084;2023-02-05T06:01:44;-1.80;99.90
21682;DHT22;11002;48.256;10.084;2023-02-05T06:04:12;-1.50;99.90
21682;DHT22;11002;48.256;10.084;2023-02-05T06:06:39;-1.70;99.90
21682;DHT22;11002;48.256;10.084;2023-02-05T06:09:06;-1.70;99.90
21682;DHT22;11002;48.256;10.084;2023-02-05T06:11:34;-1.60;99.90
21682;DHT22;11002;48.256;10.084;2023-02-05T06:14:01;-1.70;99.90
21682;DHT22;11002;48.256;10.084;2023-02-05T06:16:28;-1.70;99.90
21682;DHT22;11002;48.256;10.084;2023-02-05T06:18:57;-1.60;99.90
21682;DHT22;11002;48.256;10.084;2023-02-05T06:21:25;-1.80;99.90
21682;DHT22;11002;48.256;10.084;2023-02-05T06:23:52;-1.60;99.90
21682;DHT22;11002;48.256;10.084;2023-02-05T06:26:19;-1.60;99.90
21682;DHT22;11002;48.256;10.084;2023-02-05T06:28:46;-1.40;99.90
21682;DHT22;11002;48.256;10.084;2023-02-05T06:31:14;-1.70;99.90
21682;DHT22;11002;48.256;10.084;2023-02-05T06:33:42;-1.50;99.90
21682;DHT22;11002;48.256;10.084;2023-02-05T06:36:11;-1.60;99.90
21682;DHT22;11002;48.256;10.084;2023-02-05T06:38:38;-1.50;99.90
21682;DHT22;11002;48.256;10.084;2023-02-05T06:41:05;-1.40;99.90
21682;DHT22;11002;48.256;10.084;2023-02-05T06:43:32;-1.40;99.90
21682;DHT22;11002;48.256;10.084;2023-02-05T06:46:00;-1.40;99.90
21682;DHT22;11002;48.256;10.084;2023-02-05T06:48:27;-1.40;99.90
21682;DHT22;11002;48.256;10.084;2023-02-05T06:50:54;-1.40;99.90
21682;DHT22;11002;48.256;10.084;2023-02-05T06:53:23;-1.40;99.90
21682;DHT22;11002;48.256;10.084;2023-02-05T06:55:50;-1.30;99.90
21682;DHT22;11002;48.256;10.084;2023-02-05T06:58:22;-1.30;99.90
21682;DHT22;11002;48.256;10.084;2023-02-05T07:00:50;-1.20;99.90
21682;DHT22;11002;48.256;10.084;2023-02-05T07:03:17;-1.40;99.90
21682;DHT22;11002;48.256;10.084;2023-02-05T07:05:47;-1.40;99.90
21682;DHT22;11002;48.256;10.084;2023-02-05T07:08:16;-1.50;99.90
21682;DHT22;11002;48.256;10.084;2023-02-05T07:10:47;-1.20;99.90
21682;DHT22;11002;48.256;10.084;2023-02-05T07:13:15;-1.30;99.90
21682;DHT22;11002;48.256;10.084;2023-02-05T07:15:45;-1.30;99.90
21682;DHT22;11002;48.256;10.084;2023-02-05T07:18:12;-1.00;99.90
21682;DHT22;11002;48.256;10.084;2023-02-05T07:20:41;-0.90;99.90
21682;DHT22;11002;48.256;10.084;2023-02-05T07:23:10;-1.10;99.90
21682;DHT22;11002;48.256;10.084;2023-02-05T07:25:37;-1.00;99.90
21682;DHT22;11002;48.256;10.084;2023-02-05T07:28:07;-1.20;99.90
21682;DHT22;11002;48.256;10.084;2023-02-05T07:30:35;-1.00;99.90
21682;DHT22;11002;48.256;10.084;2023-02-05T07:33:05;-0.90;99.90
21682;DHT22;11002;48.256;10.084;2023-02-05T07:35:35;-0.50;99.90
21682;DHT22;11002;48.256;10.084;2023-02-05T07:38:02;-0.50;99.90
21682;DHT22;11002;48.256;10.084;2023-02-05T07:40:29;-0.20;99.90
21682;DHT22;11002;48.256;10.084;2023-02-05T07:42:57;-0.10;99.90
21682;DHT22;11002;48.256;10.084;2023-02-05T07:45:28;-0.10;99.90
21682;DHT22;11002;48.256;10.084;2023-02-05T07:47:55;-0.10;99.90
21682;DHT22;11002;48.256;10.084;2023-02-05T07:50:22;0.30;99.90
21682;DHT22;11002;48.256;10.084;2023-02-05T07:52:50;0.20;99.90
21682;DHT22;11002;48.256;10.084;2023-02-05T07:55:17;0.30;99.90
21682;DHT22;11002;48.256;10.084;2023-02-05T07:57:44;0.30;99.90
21682;DHT22;11002;48.256;10.084;2023-02-05T08:00:13;0.30;99.90
21682;DHT22;11002;48.256;10.084;2023-02-05T08:02:41;0.20;99.90
21682;DHT22;11002;48.256;10.084;2023-02-05T08:05:10;0.30;99.90
21682;DHT22;11002;48.256;10.084;2023-02-05T08:07:38;0.20;99.90
21682;DHT22;11002;48.256;10.084;2023-02-05T08:10:06;0.30;99.90
21682;DHT22;11002;48.256;10.084;2023-02-05T08:12:33;0.60;99.90
21682;DHT22;11002;48.256;10.084;2023-02-05T08:15:00;0.60;99.90
21682;DHT22;11002;48.256;10.084;2023-02-05T08:17:28;0.70;99.90
21682;DHT22;11002;48.256;10.084;2023-02-05T08:19:56;0.90;99.90
21682;DHT22;11002;48.256;10.084;2023-02-05T08:22:24;0.90;99.90
21682;DHT22;11002;48.256;10.084;2023-02-05T08:24:54;1.50;99.90
21682;DHT22;11002;48.256;10.084;2023-02-05T08:27:22;1.30;99.90
21682;DHT22;11002;48.256;10.084;2023-02-05T08:29:49;1.80;99.90
21682;DHT22;11002;48.256;10.084;2023-02-05T08:32:17;1.60;99.90
21682;DHT22;11002;48.256;10.084;2023-02-05T08:34:47;1.60;99.90
21682;DHT22;11002;48.256;10.084;2023-02-05T08:37:18;1.70;99.90
21682;DHT22;11002;48.256;10.084;2023-02-05T08:39:45;1.70;99.90
21682;DHT22;11002;48.256;10.084;2023-02-05T08:42:16;1.40;99.90
21682;DHT22;11002;48.256;10.084;2023-02-05T08:44:43;1.80;99.90
21682;DHT22;11002;48.256;10.084;2023-02-05T08:47:13;1.60;99.90
21682;DHT22;11002;48.256;10.084;2023-02-05T08:49:40;1.70;99.20
21682;DHT22;11002;48.256;10.084;2023-02-05T08:52:10;1.80;99.90
21682;DHT22;11002;48.256;10.084;2023-02-05T08:54:39;2.10;99.10
21682;DHT22;11002;48.256;10.084;2023-02-05T08:57:07;1.90;95.90
21682;DHT22;11002;48.256;10.084;2023-02-05T08:59:36;2.10;94.10
21682;DHT22;11002;48.256;10.084;2023-02-05T09:02:03;1.80;91.50
21682;DHT22;11002;48.256;10.084;2023-02-05T09:04:31;1.80;92.00
21682;DHT22;11002;48.256;10.084;2023-02-05T09:06:58;1.60;92.60
21682;DHT22;11002;48.256;10.084;2023-02-05T09:09:25;1.70;93.10
21682;DHT22;11002;48.256;10.084;2023-02-05T09:11:54;1.70;94.10
21682;DHT22;11002;48.256;10.084;2023-02-05T09:14:23;1.60;96.30
21682;DHT22;11002;48.256;10.084;2023-02-05T09:16:51;1.70;97.80
21682;DHT22;11002;48.256;10.084;2023-02-05T09:19:21;1.60;97.80
21682;DHT22;11002;48.256;10.084;2023-02-05T09:21:49;1.90;98.20
21682;DHT22;11002;48.256;10.084;2023-02-05T09:24:19;1.80;99.90
21682;DHT22;11002;48.256;10.084;2023-02-05T09:26:47;1.70;99.90
21682;DHT22;11002;48.256;10.084;2023-02-05T09:29:18;2.00;99.90
21682;DHT22;11002;48.256;10.084;2023-02-05T09:31:46;2.00;99.90
21682;DHT22;11002;48.256;10.084;2023-02-05T09:34:13;2.30;99.70
21682;DHT22;11002;48.256;10.084;2023-02-05T09:36:41;2.20;99.60
21682;DHT22;11002;48.256;10.084;2023-02-05T09:39:09;2.20;99.60
21682;DHT22;11002;48.256;10.084;2023-02-05T09:41:42;2.20;99.90
21682;DHT22;11002;48.256;10.084;2023-02-05T09:44:16;2.40;99.90
21682;DHT22;11002;48.256;10.084;2023-02-05T09:46:55;2.40;99.90
21682;DHT22;11002;48.256;10.084;2023-02-05T09:49:29;2.20;99.90
21682;DHT22;11002;48.256;10.084;2023-02-05T09:52:01;2.40;99.90
21682;DHT22;11002;48.256;10.084;2023-02-05T09:54:35;2.40;98.30
21682;DHT22;11002;48.256;10.084;2023-02-05T09:57:11;2.40;96.10
21682;DHT22;11002;48.256;10.084;2023-02-05T09:59:42;2.40;96.50
21682;DHT22;11002;48.256;10.084;2023-02-05T10:02:22;2.30;96.90
21682;DHT22;11002;48.256;10.084;2023-02-05T10:04:54;2.50;96.90
21682;DHT22;11002;48.256;10.084;2023-02-05T10:07:32;2.30;96.60
21682;DHT22;11002;48.256;10.084;2023-02-05T10:10:22;2.40;94.10
21682;DHT22;11002;48.256;10.084;2023-02-05T10:13:07;2.60;92.90
21682;DHT22;11002;48.256;10.084;2023-02-05T10:15:51;2.50;91.50
21682;DHT22;11002;48.256;10.084;2023-02-05T10:18:25;2.40;91.00
21682;DHT22;11002;48.256;10.084;2023-02-05T10:21:02;2.50;91.90
21682;DHT22;11002;48.256;10.084;2023-02-05T10:23:57;2.40;91.40
21682;DHT22;11002;48.256;10.084;2023-02-05T10:26:32;2.70;91.10
21682;DHT22;11002;48.256;10.084;2023-02-05T10:29:19;2.60;91.30
21682;DHT22;11002;48.256;10.084;2023-02-05T10:31:58;2.80;91.60
21682;DHT22;11002;48.256;10.084;2023-02-05T10:34:40;2.70;90.80
21682;DHT22;11002;48.256;10.084;2023-02-05T10:37:15;2.70;90.70
21682;DHT22;11002;48.256;10.084;2023-02-05T10:39:44;2.70;90.70
21682;DHT22;11002;48.256;10.084;2023-02-05T10:42:21;2.70;90.70
21682;DHT22;11002;48.256;10.084;2023-02-05T10:44:57;3.00;90.90
21682;DHT22;11002;48.256;10.084;2023-02-05T10:47:43;2.60;90.70
21682;DHT22;11002;48.256;10.084;2023-02-05T10:50:22;2.80;91.40
21682;DHT22;11002;48.256;10.084;2023-02-05T10:52:51;3.10;92.70
21682;DHT22;11002;48.256;10.084;2023-02-05T10:55:19;3.00;92.60
21682;DHT22;11002;48.256;10.084;2023-02-05T10:57:46;3.10;93.20
21682;DHT22;11002;48.256;10.084;2023-02-05T11:00:15;3.40;92.70
21682;DHT22;11002;48.256;10.084;2023-02-05T11:02:48;3.50;92.60
21682;DHT22;11002;48.256;10.084;2023-02-05T11:05:23;3.40;92.00
21682;DHT22;11002;48.256;10.084;2023-02-05T11:07:53;3.60;91.10
21682;DHT22;11002;48.256;10.084;2023-02-05T11:10:22;3.90;91.20
21682;DHT22;11002;48.256;10.084;2023-02-05T11:12:52;3.80;90.30
21682;DHT22;11002;48.256;10.084;2023-02-05T11:15:24;3.90;86.60
21682;DHT22;11002;48.256;10.084;2023-02-05T11:17:53;4.00;80.80
21682;DHT22;11002;48.256;10.084;2023-02-05T11:20:28;4.10;78.50
21682;DHT22;11002;48.256;10.084;2023-02-05T11:23:07;4.00;77.20
21682;DHT22;11002;48.256;10.084;2023-02-05T11:25:35;4.00;78.70
21682;DHT22;11002;48.256;10.084;2023-02-05T11:28:03;4.00;77.10
21682;DHT22;11002;48.256;10.084;2023-02-05T11:30:32;4.30;79.00
21682;DHT22;11002;48.256;10.084;2023-02-05T11:33:17;4.10;76.10
21682;DHT22;11002;48.256;10.084;2023-02-05T11:35:52;4.00;73.80
21682;DHT22;11002;48.256;10.084;2023-02-05T11:38:24;4.20;74.00
21682;DHT22;11002;48.256;10.084;2023-02-05T11:40:57;4.40;74.80
21682;DHT22;11002;48.256;10.084;2023-02-05T11:43:26;4.30;71.50
21682;DHT22;11002;48.256;10.084;2023-02-05T11:45:56;4.30;70.40
21682;DHT22;11002;48.256;10.084;2023-02-05T11:48:31;4.30;69.50
21682;DHT22;11002;48.256;10.084;2023-02-05T11:51:03;4.30;69.80
21682;DHT22;11002;48.256;10.084;2023-02-05T11:53:32;4.30;67.50
21682;DHT22;11002;48.256;10.084;2023-02-05T11:56:02;4.30;68.90
21682;DHT22;11002;48.256;10.084;2023-02-05T11:58:33;4.40;70.10
21682;DHT22;11002;48.256;10.084;2023-02-05T12:01:05;4.20;67.40
21682;DHT22;11002;48.256;10.084;2023-02-05T12:03:33;4.20;67.40
21682;DHT22;11002;48.256;10.084;2023-02-05T12:06:09;3.90;67.10
21682;DHT22;11002;48.256;10.084;2023-02-05T12:08:42;4.20;68.20
21682;DHT22;11002;48.256;10.084;2023-02-05T12:14:25;3.80;69.80
21682;DHT22;11002;48.256;10.084;2023-02-05T12:16:59;3.90;70.40
21682;DHT22;11002;48.256;10.084;2023-02-05T12:19:32;3.50;70.80
21682;DHT22;11002;48.256;10.084;2023-02-05T12:22:12;3.60;72.20
21682;DHT22;11002;48.256;10.084;2023-02-05T12:24:52;3.50;73.30
21682;DHT22;11002;48.256;10.084;2023-02-05T12:27:33;3.50;73.40
21682;DHT22;11002;48.256;10.084;2023-02-05T12:30:16;3.30;73.20
21682;DHT22;11002;48.256;10.084;2023-02-05T12:32:49;3.40;73.80
21682;DHT22;11002;48.256;10.084;2023-02-05T12:35:33;3.50;74.70
21682;DHT22;11002;48.256;10.084;2023-02-05T12:38:16;3.30;75.70
21682;DHT22;11002;48.256;10.084;2023-02-05T12:40:52;3.20;75.90
21682;DHT22;11002;48.256;10.084;2023-02-05T12:43:34;3.50;76.90
21682;DHT22;11002;48.256;10.084;2023-02-05T12:46:13;3.40;77.90
21682;DHT22;11002;48.256;10.084;2023-02-05T12:48:55;3.40;78.20
21682;DHT22;11002;48.256;10.084;2023-02-05T12:51:39;3.30;79.70
21682;DHT22;11002;48.256;10.084;2023-02-05T12:57:03;3.20;79.60
21682;DHT22;11002;48.256;10.084;2023-02-05T12:59:38;3.30;79.70
21682;DHT22;11002;48.256;10.084;2023-02-05T13:02:23;3.30;80.20
21682;DHT22;11002;48.256;10.084;2023-02-05T13:05:01;3.10;80.20
21682;DHT22;11002;48.256;10.084;2023-02-05T13:07:33;3.20;81.40
21682;DHT22;11002;48.256;10.084;2023-02-05T13:10:06;3.10;81.70
21682;DHT22;11002;48.256;10.084;2023-02-05T13:12:44;3.20;82.50
21682;DHT22;11002;48.256;10.084;2023-02-05T13:15:16;3.40;82.20
21682;DHT22;11002;48.256;10.084;2023-02-05T13:17:55;3.30;82.30
21682;DHT22;11002;48.256;10.084;2023-02-05T13:20:27;3.10;82.00
21682;DHT22;11002;48.256;10.084;2023-02-05T13:23:12;3.10;83.20
21682;DHT22;11002;48.256;10.084;2023-02-05T13:26:00;3.30;84.20
21682;DHT22;11002;48.256;10.084;2023-02-05T13:28:48;3.20;84.10
21682;DHT22;11002;48.256;10.084;2023-02-05T13:31:24;3.30;84.20
21682;DHT22;11002;48.256;10.084;2023-02-05T13:33:54;3.20;84.20
21682;DHT22;11002;48.256;10.084;2023-02-05T13:36:44;3.20;84.50
21682;DHT22;11002;48.256;10.084;2023-02-05T13:39:35;3.30;83.60
21682;DHT22;11002;48.256;10.084;2023-02-05T13:42:21;3.30;84.00
21682;DHT22;11002;48.256;10.084;2023-02-05T13:45:32;3.00;84.90
21682;DHT22;11002;48.256;10.084;2023-02-05T13:48:39;3.00;85.80
21682;DHT22;11002;48.256;10.084;2023-02-05T13:51:43;2.90;86.10
21682;DHT22;11002;48.256;10.084;2023-02-05T13:54:43;3.20;85.90
21682;DHT22;11002;48.256;10.084;2023-02-05T14:00:16;3.00;86.90
21682;DHT22;11002;48.256;10.084;2023-02-05T14:02:46;2.90;87.30
21682;DHT22;11002;48.256;10.084;2023-02-05T14:05:15;3.10;86.90
21682;DHT22;11002;48.256;10.084;2023-02-05T14:07:53;2.90;87.10
21682;DHT22;11002;48.256;10.084;2023-02-05T14:10:26;2.90;87.50
21682;DHT22;11002;48.256;10.084;2023-02-05T14:13:08;2.80;87.70
21682;DHT22;11002;48.256;10.084;2023-02-05T14:15:39;2.90;87.80
21682;DHT22;11002;48.256;10.084;2023-02-05T14:18:09;2.90;89.10
21682;DHT22;11002;48.256;10.084;2023-02-05T14:20:39;2.90;90.30
21682;DHT22;11002;48.256;10.084;2023-02-05T14:23:12;2.80;90.00
21682;DHT22;11002;48.256;10.084;2023-02-05T14:26:07;2.80;90.30
21682;DHT22;11002;48.256;10.084;2023-02-05T14:28:48;2.90;90.80
21682;DHT22;11002;48.256;10.084;2023-02-05T14:31:44;2.90;91.10
21682;DHT22;11002;48.256;10.084;2023-02-05T14:37:34;2.90;92.40
21682;DHT22;11002;48.256;10.084;2023-02-05T14:40:24;2.80;92.80
21682;DHT22;11002;48.256;10.084;2023-02-05T14:42:54;2.60;92.30
21682;DHT22;11002;48.256;10.084;2023-02-05T14:45:25;2.60;92.60
21682;DHT22;11002;48.256;10.084;2023-02-05T14:47:56;2.60;92.90
21682;DHT22;11002;48.256;10.084;2023-02-05T14:50:26;2.90;92.60
21682;DHT22;11002;48.256;10.084;2023-02-05T14:52:57;2.70;93.00
21682;DHT22;11002;48.256;10.084;2023-02-05T14:55:35;2.60;93.00
21682;DHT22;11002;48.256;10.084;2023-02-05T14:58:06;2.70;93.50
21682;DHT22;11002;48.256;10.084;2023-02-05T15:00:39;2.60;94.00
21682;DHT22;11002;48.256;10.084;2023-02-05T15:03:22;2.90;94.00
21682;DHT22;11002;48.256;10.084;2023-02-05T15:05:57;2.60;94.30
21682;DHT22;11002;48.256;10.084;2023-02-05T15:08:43;2.80;94.50
21682;DHT22;11002;48.256;10.084;2023-02-05T15:11:17;3.00;94.10
21682;DHT22;11002;48.256;10.084;2023-02-05T15:17:39;2.70;94.50
21682;DHT22;11002;48.256;10.084;2023-02-05T15:20:26;2.70;94.60
21682;DHT22;11002;48.256;10.084;2023-02-05T15:23:26;2.70;95.00
21682;DHT22;11002;48.256;10.084;2023-02-05T15:26:04;2.50;95.00
21682;DHT22;11002;48.256;10.084;2023-02-05T15:28:50;2.40;95.20
21682;DHT22;11002;48.256;10.084;2023-02-05T15:31:28;2.50;96.00
21682;DHT22;11002;48.256;10.084;2023-02-05T15:34:27;2.30;96.20
21682;DHT22;11002;48.256;10.084;2023-02-05T15:37:00;2.50;97.00
21682;DHT22;11002;48.256;10.084;2023-02-05T15:39:43;2.40;97.20
21682;DHT22;11002;48.256;10.084;2023-02-05T15:42:18;2.60;97.50
21682;DHT22;11002;48.256;10.084;2023-02-05T15:44:56;2.50;97.80
21682;DHT22;11002;48.256;10.084;2023-02-05T15:47:26;2.50;98.30
21682;DHT22;11002;48.256;10.084;2023-02-05T15:50:00;2.60;98.20
21682;DHT22;11002;48.256;10.084;2023-02-05T15:52:33;2.40;98.00
21682;DHT22;11002;48.256;10.084;2023-02-05T15:55:16;2.30;97.90
21682;DHT22;11002;48.256;10.084;2023-02-05T15:57:57;2.30;98.00
21682;DHT22;11002;48.256;10.084;2023-02-05T16:00:38;2.30;97.80
21682;DHT22;11002;48.256;10.084;2023-02-05T16:03:25;2.30;97.10
21682;DHT22;11002;48.256;10.084;2023-02-05T16:05:55;2.20;97.40
21682;DHT22;11002;48.256;10.084;2023-02-05T16:08:29;2.20;97.70
21682;DHT22;11002;48.256;10.084;2023-02-05T16:11:07;2.10;97.80
21682;DHT22;11002;48.256;10.084;2023-02-05T16:13:41;2.10;97.70
21682;DHT22;11002;48.256;10.084;2023-02-05T16:16:19;2.10;97.80
21682;DHT22;11002;48.256;10.084;2023-02-05T16:18:58;2.10;97.70
21682;DHT22;11002;48.256;10.084;2023-02-05T16:21:37;2.10;98.10
21682;DHT22;11002;48.256;10.084;2023-02-05T16:24:16;1.90;98.00
21682;DHT22;11002;48.256;10.084;2023-02-05T16:27:07;2.00;98.20